sensor_id;sensor_type;location;lat;lon;timestamp;P1;durP1;ratioP1;P2;durP2;ratioP2
13345;SDS011;6742;48.036;15.780;2022-11-20T00:01:46;102.67;;;95.77;;
13345;SDS011;6742;48.036;15.780;2022-11-20T00:04:13;104.93;;;97.33;;
13345;SDS011;6742;48.036;15.780;2022-11-20T00:06:40;89.57;;;83.07;;
13345;SDS011;6742;48.036;15.780;2022-11-20T00:09:09;105.87;;;98.73;;
13345;SDS011;6742;48.036;15.780;2022-11-20T00:11:37;113.87;;;106.50;;
13345;SDS011;6742;48.036;15.780;2022-11-20T00:14:04;123.30;;;115.77;;
13345;SDS011;6742;48.036;15.780;2022-11-20T00:16:32;114.10;;;106.50;;
13345;SDS011;6742;48.036;15.780;2022-11-20T00:18:59;108.77;;;101.53;;
13345;SDS011;6742;48.036;15.780;2022-11-20T00:21:27;105.80;;;98.40;;
13345;SDS011;6742;48.036;15.780;2022-11-20T00:23:56;99.37;;;92.77;;
13345;SDS011;6742;48.036;15.780;2022-11-20T00:26:24;92.57;;;85.90;;
13345;SDS011;6742;48.036;15.780;2022-11-20T00:28:52;100.43;;;93.43;;
13345;SDS011;6742;48.036;15.780;2022-11-20T00:31:20;84.00;;;77.77;;
13345;SDS011;6742;48.036;15.780;2022-11-20T00:33:48;89.27;;;82.60;;
13345;SDS011;6742;48.036;15.780;2022-11-20T00:36:16;100.47;;;93.27;;
13345;SDS011;6742;48.036;15.780;2022-11-20T00:38:44;99.53;;;92.83;;
13345;SDS011;6742;48.036;15.780;2022-11-20T00:41:12;80.53;;;74.63;;
13345;SDS011;6742;48.036;15.780;2022-11-20T00:43:41;110.60;;;103.47;;
13345;SDS011;6742;48.036;15.780;2022-11-20T00:46:08;99.47;;;92.57;;
13345;SDS011;6742;48.036;15.780;2022-11-20T00:48:38;102.57;;;95.80;;
13345;SDS011;6742;48.036;15.780;2022-11-20T00:51:06;86.37;;;80.13;;
13345;SDS011;6742;48.036;15.780;2022-11-20T00:53:34;75.33;;;69.63;;
13345;SDS011;6742;48.036;15.780;2022-11-20T00:56:02;92.47;;;85.97;;
13345;SDS011;6742;48.036;15.780;2022-11-20T00:58:31;288.60;;;271.67;;
13345;SDS011;6742;48.036;15.780;2022-11-20T01:00:59;331.63;;;312.03;;
13345;SDS011;6742;48.036;15.780;2022-11-20T01:03:27;330.57;;;311.27;;
13345;SDS011;6742;48.036;15.780;2022-11-20T01:05:59;309.83;;;291.73;;
13345;SDS011;6742;48.036;15.780;2022-11-20T01:08:29;296.97;;;279.10;;
13345;SDS011;6742;48.036;15.780;2022-11-20T01:11:01;406.70;;;381.20;;
13345;SDS011;6742;48.036;15.780;2022-11-20T01:13:28;343.33;;;322.87;;
13345;SDS011;6742;48.036;15.780;2022-11-20T01:16:06;305.20;;;287.37;;
13345;SDS011;6742;48.036;15.780;2022-11-20T01:18:35;89.70;;;83.50;;
13345;SDS011;6742;48.036;15.780;2022-11-20T01:21:04;103.43;;;96.60;;
13345;SDS011;6742;48.036;15.780;2022-11-20T01:23:33;96.37;;;89.93;;
13345;SDS011;6742;48.036;15.780;2022-11-20T01:26:05;77.63;;;71.90;;
13345;SDS011;6742;48.036;15.780;2022-11-20T01:28:34;79.00;;;73.50;;
13345;SDS011;6742;48.036;15.780;2022-11-20T01:31:01;121.47;;;113.97;;
13345;SDS011;6742;48.036;15.780;2022-11-20T01:33:36;76.80;;;71.20;;
13345;SDS011;6742;48.036;15.780;2022-11-20T01:36:03;89.97;;;84.10;;
13345;SDS011;6742;48.036;15.780;2022-11-20T01:38:31;274.13;;;258.57;;
13345;SDS011;6742;48.036;15.780;2022-11-20T01:41:00;413.97;;;389.30;;
13345;SDS011;6742;48.036;15.780;2022-11-20T01:43:27;103.50;;;96.97;;
13345;SDS011;6742;48.036;15.780;2022-11-20T01:46:04;104.80;;;98.00;;
13345;SDS011;6742;48.036;15.780;2022-11-20T01:48:40;80.07;;;74.37;;
13345;SDS011;6742;48.036;15.780;2022-11-20T01:51:12;110.00;;;103.23;;
13345;SDS011;6742;48.036;15.780;2022-11-20T01:53:48;82.47;;;76.67;;
13345;SDS011;6742;48.036;15.780;2022-11-20T01:56:16;98.57;;;92.03;;
13345;SDS011;6742;48.036;15.780;2022-11-20T01:58:44;109.33;;;102.57;;
13345;SDS011;6742;48.036;15.780;2022-11-20T02:01:16;109.47;;;102.67;;
13345;SDS011;6742;48.036;15.780;2022-11-20T02:03:43;88.57;;;82.57;;
13345;SDS011;6742;48.036;15.780;2022-11-20T02:06:15;129.10;;;121.53;;
13345;SDS011;6742;48.036;15.780;2022-11-20T02:08:49;81.43;;;75.80;;
13345;SDS011;6742;48.036;15.780;2022-11-20T02:11:17;108.20;;;101.00;;
13345;SDS011;6742;48.036;15.780;2022-11-20T02:13:44;124.33;;;116.97;;
13345;SDS011;6742;48.036;15.780;2022-11-20T02:16:15;84.27;;;78.17;;
13345;SDS011;6742;48.036;15.780;2022-11-20T02:18:46;121.17;;;113.63;;
13345;SDS011;6742;48.036;15.780;2022-11-20T02:21:15;136.87;;;128.90;;
13345;SDS011;6742;48.036;15.780;2022-11-20T02:24:00;102.17;;;95.73;;
13345;SDS011;6742;48.036;15.780;2022-11-20T02:26:33;96.20;;;89.67;;
13345;SDS011;6742;48.036;15.780;2022-11-20T02:29:04;104.57;;;97.70;;
13345;SDS011;6742;48.036;15.780;2022-11-20T02:31:37;101.37;;;94.90;;
13345;SDS011;6742;48.036;15.780;2022-11-20T02:34:07;90.70;;;84.20;;
13345;SDS011;6742;48.036;15.780;2022-11-20T02:36:34;110.70;;;103.80;;
13345;SDS011;6742;48.036;15.780;2022-11-20T02:39:05;86.47;;;80.50;;
13345;SDS011;6742;48.036;15.780;2022-11-20T02:41:36;110.13;;;103.40;;
13345;SDS011;6742;48.036;15.780;2022-11-20T02:44:06;83.77;;;78.17;;
13345;SDS011;6742;48.036;15.780;2022-11-20T02:46:33;98.47;;;92.30;;
13345;SDS011;6742;48.036;15.780;2022-11-20T02:49:01;117.87;;;110.97;;
13345;SDS011;6742;48.036;15.780;2022-11-20T02:51:28;91.50;;;85.30;;
13345;SDS011;6742;48.036;15.780;2022-11-20T02:53:55;94.33;;;88.13;;
13345;SDS011;6742;48.036;15.780;2022-11-20T02:56:26;101.13;;;94.80;;
13345;SDS011;6742;48.036;15.780;2022-11-20T02:58:53;97.63;;;91.33;;
13345;SDS011;6742;48.036;15.780;2022-11-20T03:01:20;96.00;;;89.67;;
13345;SDS011;6742;48.036;15.780;2022-11-20T03:03:47;120.43;;;113.23;;
13345;SDS011;6742;48.036;15.780;2022-11-20T03:06:14;102.13;;;95.63;;
13345;SDS011;6742;48.036;15.780;2022-11-20T03:08:42;120.83;;;113.33;;
13345;SDS011;6742;48.036;15.780;2022-11-20T03:11:09;106.03;;;99.47;;
13345;SDS011;6742;48.036;15.780;2022-11-20T03:13:37;112.37;;;105.63;;
13345;SDS011;6742;48.036;15.780;2022-11-20T03:16:06;92.53;;;86.10;;
13345;SDS011;6742;48.036;15.780;2022-11-20T03:18:34;103.27;;;96.93;;
13345;SDS011;6742;48.036;15.780;2022-11-20T03:21:01;304.93;;;287.57;;
13345;SDS011;6742;48.036;15.780;2022-11-20T03:23:28;91.43;;;85.33;;
13345;SDS011;6742;48.036;15.780;2022-11-20T03:26:07;82.43;;;76.70;;
13345;SDS011;6742;48.036;15.780;2022-11-20T03:28:40;77.70;;;72.47;;
13345;SDS011;6742;48.036;15.780;2022-11-20T03:31:09;105.50;;;98.90;;
13345;SDS011;6742;48.036;15.780;2022-11-20T03:33:37;95.37;;;88.90;;
13345;SDS011;6742;48.036;15.780;2022-11-20T03:36:06;90.47;;;84.20;;
13345;SDS011;6742;48.036;15.780;2022-11-20T03:38:34;97.20;;;91.00;;
13345;SDS011;6742;48.036;15.780;2022-11-20T03:41:03;123.40;;;116.13;;
13345;SDS011;6742;48.036;15.780;2022-11-20T03:43:34;122.57;;;114.83;;
13345;SDS011;6742;48.036;15.780;2022-11-20T03:46:03;111.57;;;104.43;;
13345;SDS011;6742;48.036;15.780;2022-11-20T03:48:33;113.63;;;106.57;;
13345;SDS011;6742;48.036;15.780;2022-11-20T03:51:06;80.70;;;75.03;;
13345;SDS011;6742;48.036;15.780;2022-11-20T03:53:37;91.40;;;85.07;;
13345;SDS011;6742;48.036;15.780;2022-11-20T03:56:05;105.67;;;98.93;;
13345;SDS011;6742;48.036;15.780;2022-11-20T03:58:33;280.20;;;264.07;;
13345;SDS011;6742;48.036;15.780;2022-11-20T04:01:05;276.90;;;260.80;;
13345;SDS011;6742;48.036;15.780;2022-11-20T04:03:33;266.43;;;251.37;;
13345;SDS011;6742;48.036;15.780;2022-11-20T04:06:04;269.80;;;254.17;;
13345;SDS011;6742;48.036;15.780;2022-11-20T04:08:32;107.80;;;101.10;;
13345;SDS011;6742;48.036;15.780;2022-11-20T04:11:09;76.83;;;71.53;;
13345;SDS011;6742;48.036;15.780;2022-11-20T04:13:37;103.10;;;96.57;;
13345;SDS011;6742;48.036;15.780;2022-11-20T04:16:06;84.67;;;79.07;;
13345;SDS011;6742;48.036;15.780;2022-11-20T04:18:37;83.13;;;77.33;;
13345;SDS011;6742;48.036;15.780;2022-11-20T04:21:04;70.87;;;65.73;;
13345;SDS011;6742;48.036;15.780;2022-11-20T04:23:32;103.97;;;97.17;;
13345;SDS011;6742;48.036;15.780;2022-11-20T04:26:02;88.17;;;82.23;;
13345;SDS011;6742;48.036;15.780;2022-11-20T04:28:30;112.87;;;105.77;;
13345;SDS011;6742;48.036;15.780;2022-11-20T04:31:04;131.63;;;123.60;;
13345;SDS011;6742;48.036;15.780;2022-11-20T04:33:34;70.80;;;65.43;;
13345;SDS011;6742;48.036;15.780;2022-11-20T04:36:02;102.87;;;96.57;;
13345;SDS011;6742;48.036;15.780;2022-11-20T04:38:30;249.47;;;234.87;;
13345;SDS011;6742;48.036;15.780;2022-11-20T04:40:58;372.73;;;348.67;;
13345;SDS011;6742;48.036;15.780;2022-11-20T04:43:25;394.93;;;371.33;;
13345;SDS011;6742;48.036;15.780;2022-11-20T04:45:52;332.20;;;312.67;;
13345;SDS011;6742;48.036;15.780;2022-11-20T04:48:21;90.23;;;84.23;;
13345;SDS011;6742;48.036;15.780;2022-11-20T04:50:48;108.10;;;101.50;;
13345;SDS011;6742;48.036;15.780;2022-11-20T04:53:15;77.20;;;71.97;;
13345;SDS011;6742;48.036;15.780;2022-11-20T04:55:42;111.47;;;104.63;;
13345;SDS011;6742;48.036;15.780;2022-11-20T04:58:09;93.83;;;87.57;;
13345;SDS011;6742;48.036;15.780;2022-11-20T05:00:36;92.83;;;86.63;;
13345;SDS011;6742;48.036;15.780;2022-11-20T05:03:03;94.00;;;87.83;;
13345;SDS011;6742;48.036;15.780;2022-11-20T05:05:32;282.17;;;265.53;;
13345;SDS011;6742;48.036;15.780;2022-11-20T05:07:59;294.03;;;277.23;;
13345;SDS011;6742;48.036;15.780;2022-11-20T05:10:26;289.60;;;273.00;;
13345;SDS011;6742;48.036;15.780;2022-11-20T05:12:53;310.27;;;292.10;;
13345;SDS011;6742;48.036;15.780;2022-11-20T05:15:20;91.47;;;85.47;;
13345;SDS011;6742;48.036;15.780;2022-11-20T05:17:47;87.10;;;81.13;;
13345;SDS011;6742;48.036;15.780;2022-11-20T05:20:15;96.37;;;90.17;;
13345;SDS011;6742;48.036;15.780;2022-11-20T05:22:43;103.40;;;96.97;;
13345;SDS011;6742;48.036;15.780;2022-11-20T05:25:10;124.67;;;116.97;;
13345;SDS011;6742;48.036;15.780;2022-11-20T05:27:38;103.90;;;97.33;;
13345;SDS011;6742;48.036;15.780;2022-11-20T05:30:06;92.83;;;86.47;;
13345;SDS011;6742;48.036;15.780;2022-11-20T05:32:34;94.00;;;87.77;;
13345;SDS011;6742;48.036;15.780;2022-11-20T05:35:00;91.77;;;85.37;;
13345;SDS011;6742;48.036;15.780;2022-11-20T05:37:27;84.73;;;78.93;;
13345;SDS011;6742;48.036;15.780;2022-11-20T05:39:56;90.70;;;84.83;;
13345;SDS011;6742;48.036;15.780;2022-11-20T05:42:23;90.13;;;84.03;;
13345;SDS011;6742;48.036;15.780;2022-11-20T05:44:58;84.63;;;78.73;;
13345;SDS011;6742;48.036;15.780;2022-11-20T05:47:27;101.57;;;94.63;;
13345;SDS011;6742;48.036;15.780;2022-11-20T05:49:57;82.77;;;77.07;;
13345;SDS011;6742;48.036;15.780;2022-11-20T05:52:24;107.03;;;100.30;;
13345;SDS011;6742;48.036;15.780;2022-11-20T05:54:55;90.77;;;84.37;;
13345;SDS011;6742;48.036;15.780;2022-11-20T05:57:22;85.67;;;79.87;;
13345;SDS011;6742;48.036;15.780;2022-11-20T05:59:49;132.47;;;124.47;;
13345;SDS011;6742;48.036;15.780;2022-11-20T06:02:16;262.47;;;247.33;;
13345;SDS011;6742;48.036;15.780;2022-11-20T06:04:43;92.03;;;85.83;;
13345;SDS011;6742;48.036;15.780;2022-11-20T06:07:10;87.83;;;80.57;;
13345;SDS011;6742;48.036;15.780;2022-11-20T06:09:37;367.27;;;344.03;;
13345;SDS011;6742;48.036;15.780;2022-11-20T06:12:05;296.07;;;278.30;;
13345;SDS011;6742;48.036;15.780;2022-11-20T06:14:33;104.77;;;97.07;;
13345;SDS011;6742;48.036;15.780;2022-11-20T06:17:00;116.23;;;108.60;;
13345;SDS011;6742;48.036;15.780;2022-11-20T06:19:29;100.37;;;93.23;;
13345;SDS011;6742;48.036;15.780;2022-11-20T06:21:56;265.00;;;249.63;;
13345;SDS011;6742;48.036;15.780;2022-11-20T06:24:23;109.37;;;102.23;;
13345;SDS011;6742;48.036;15.780;2022-11-20T06:26:51;92.63;;;86.73;;
13345;SDS011;6742;48.036;15.780;2022-11-20T06:29:19;107.60;;;101.07;;
13345;SDS011;6742;48.036;15.780;2022-11-20T06:31:46;87.77;;;81.93;;
13345;SDS011;6742;48.036;15.780;2022-11-20T06:34:13;85.80;;;80.20;;
13345;SDS011;6742;48.036;15.780;2022-11-20T06:36:40;124.47;;;117.17;;
13345;SDS011;6742;48.036;15.780;2022-11-20T06:39:07;84.40;;;78.57;;
13345;SDS011;6742;48.036;15.780;2022-11-20T06:41:34;124.73;;;117.33;;
13345;SDS011;6742;48.036;15.780;2022-11-20T06:44:01;103.43;;;96.77;;
13345;SDS011;6742;48.036;15.780;2022-11-20T06:46:31;112.60;;;105.77;;
13345;SDS011;6742;48.036;15.780;2022-11-20T06:48:58;114.80;;;107.77;;
13345;SDS011;6742;48.036;15.780;2022-11-20T06:51:25;89.10;;;83.00;;
13345;SDS011;6742;48.036;15.780;2022-11-20T06:53:55;104.73;;;98.03;;
13345;SDS011;6742;48.036;15.780;2022-11-20T06:56:21;115.47;;;108.43;;
13345;SDS011;6742;48.036;15.780;2022-11-20T06:58:48;84.73;;;79.03;;
13345;SDS011;6742;48.036;15.780;2022-11-20T07:01:15;99.87;;;93.53;;
13345;SDS011;6742;48.036;15.780;2022-11-20T07:03:44;137.50;;;129.67;;
13345;SDS011;6742;48.036;15.780;2022-11-20T07:06:11;71.80;;;66.80;;
13345;SDS011;6742;48.036;15.780;2022-11-20T07:08:37;106.33;;;100.03;;
13345;SDS011;6742;48.036;15.780;2022-11-20T07:11:05;107.13;;;100.80;;
13345;SDS011;6742;48.036;15.780;2022-11-20T07:13:33;266.87;;;251.73;;
13345;SDS011;6742;48.036;15.780;2022-11-20T07:16:00;259.50;;;244.90;;
13345;SDS011;6742;48.036;15.780;2022-11-20T07:18:34;338.63;;;319.07;;
13345;SDS011;6742;48.036;15.780;2022-11-20T07:21:06;365.07;;;343.10;;
13345;SDS011;6742;48.036;15.780;2022-11-20T07:23:34;263.97;;;248.97;;
13345;SDS011;6742;48.036;15.780;2022-11-20T07:26:02;311.37;;;293.33;;
13345;SDS011;6742;48.036;15.780;2022-11-20T07:28:30;282.43;;;266.63;;
13345;SDS011;6742;48.036;15.780;2022-11-20T07:30:57;359.17;;;338.53;;
13345;SDS011;6742;48.036;15.780;2022-11-20T07:33:24;88.97;;;83.83;;
13345;SDS011;6742;48.036;15.780;2022-11-20T07:35:50;76.73;;;72.13;;
13345;SDS011;6742;48.036;15.780;2022-11-20T07:38:19;80.40;;;75.43;;
13345;SDS011;6742;48.036;15.780;2022-11-20T07:40:46;314.20;;;294.67;;
13345;SDS011;6742;48.036;15.780;2022-11-20T07:43:13;345.60;;;324.93;;
13345;SDS011;6742;48.036;15.780;2022-11-20T07:45:40;409.03;;;382.53;;
13345;SDS011;6742;48.036;15.780;2022-11-20T07:48:07;293.80;;;276.27;;
13345;SDS011;6742;48.036;15.780;2022-11-20T07:50:34;326.50;;;307.00;;
13345;SDS011;6742;48.036;15.780;2022-11-20T07:53:02;288.63;;;272.50;;
13345;SDS011;6742;48.036;15.780;2022-11-20T07:55:31;88.83;;;83.70;;
13345;SDS011;6742;48.036;15.780;2022-11-20T07:57:58;93.67;;;88.47;;
13345;SDS011;6742;48.036;15.780;2022-11-20T08:00:25;67.30;;;63.50;;
13345;SDS011;6742;48.036;15.780;2022-11-20T08:02:55;71.27;;;67.20;;
13345;SDS011;6742;48.036;15.780;2022-11-20T08:05:22;220.90;;;208.77;;
13345;SDS011;6742;48.036;15.780;2022-11-20T08:07:49;244.83;;;230.83;;
13345;SDS011;6742;48.036;15.780;2022-11-20T08:10:16;275.30;;;259.37;;
13345;SDS011;6742;48.036;15.780;2022-11-20T08:12:45;354.40;;;333.33;;
13345;SDS011;6742;48.036;15.780;2022-11-20T08:15:30;284.10;;;268.60;;
13345;SDS011;6742;48.036;15.780;2022-11-20T08:18:01;303.07;;;285.67;;
13345;SDS011;6742;48.036;15.780;2022-11-20T08:20:29;262.27;;;247.60;;
13345;SDS011;6742;48.036;15.780;2022-11-20T08:22:59;349.17;;;328.73;;
13345;SDS011;6742;48.036;15.780;2022-11-20T08:25:27;407.77;;;383.30;;
13345;SDS011;6742;48.036;15.780;2022-11-20T08:27:57;403.97;;;378.13;;
13345;SDS011;6742;48.036;15.780;2022-11-20T08:30:25;410.60;;;384.40;;
13345;SDS011;6742;48.036;15.780;2022-11-20T08:32:52;285.17;;;269.50;;
13345;SDS011;6742;48.036;15.780;2022-11-20T08:35:20;268.57;;;253.73;;
13345;SDS011;6742;48.036;15.780;2022-11-20T08:37:47;299.20;;;282.43;;
13345;SDS011;6742;48.036;15.780;2022-11-20T08:40:14;269.37;;;254.77;;
13345;SDS011;6742;48.036;15.780;2022-11-20T08:42:47;236.50;;;224.07;;
13345;SDS011;6742;48.036;15.780;2022-11-20T08:45:17;101.87;;;96.40;;
13345;SDS011;6742;48.036;15.780;2022-11-20T08:47:44;268.77;;;254.27;;
13345;SDS011;6742;48.036;15.780;2022-11-20T08:50:12;229.00;;;217.03;;
13345;SDS011;6742;48.036;15.780;2022-11-20T08:52:41;230.97;;;218.80;;
13345;SDS011;6742;48.036;15.780;2022-11-20T08:55:09;313.97;;;296.07;;
13345;SDS011;6742;48.036;15.780;2022-11-20T08:57:38;312.50;;;294.23;;
13345;SDS011;6742;48.036;15.780;2022-11-20T09:00:05;379.67;;;356.57;;
13345;SDS011;6742;48.036;15.780;2022-11-20T09:02:35;389.70;;;366.07;;
13345;SDS011;6742;48.036;15.780;2022-11-20T09:05:02;282.20;;;266.57;;
13345;SDS011;6742;48.036;15.780;2022-11-20T09:07:29;88.90;;;84.50;;
13345;SDS011;6742;48.036;15.780;2022-11-20T09:09:56;338.07;;;318.27;;
13345;SDS011;6742;48.036;15.780;2022-11-20T09:12:23;266.90;;;251.77;;
13345;SDS011;6742;48.036;15.780;2022-11-20T09:14:51;318.67;;;299.97;;
13345;SDS011;6742;48.036;15.780;2022-11-20T09:17:20;277.70;;;262.33;;
13345;SDS011;6742;48.036;15.780;2022-11-20T09:19:51;274.33;;;259.53;;
13345;SDS011;6742;48.036;15.780;2022-11-20T09:22:18;226.87;;;214.63;;
13345;SDS011;6742;48.036;15.780;2022-11-20T09:24:45;244.73;;;231.57;;
13345;SDS011;6742;48.036;15.780;2022-11-20T09:27:12;283.10;;;266.17;;
13345;SDS011;6742;48.036;15.780;2022-11-20T09:29:39;301.10;;;283.53;;
13345;SDS011;6742;48.036;15.780;2022-11-20T09:32:06;288.13;;;272.83;;
13345;SDS011;6742;48.036;15.780;2022-11-20T09:34:35;316.93;;;298.50;;
13345;SDS011;6742;48.036;15.780;2022-11-20T09:37:04;297.20;;;280.33;;
13345;SDS011;6742;48.036;15.780;2022-11-20T09:39:30;324.57;;;305.20;;
13345;SDS011;6742;48.036;15.780;2022-11-20T09:45:02;370.10;;;348.07;;
13345;SDS011;6742;48.036;15.780;2022-11-20T09:47:40;81.57;;;77.57;;
13345;SDS011;6742;48.036;15.780;2022-11-20T09:50:25;256.67;;;242.87;;
13345;SDS011;6742;48.036;15.780;2022-11-20T09:53:02;260.57;;;245.93;;
13345;SDS011;6742;48.036;15.780;2022-11-20T09:55:37;263.67;;;249.33;;
13345;SDS011;6742;48.036;15.780;2022-11-20T09:58:05;236.93;;;223.97;;
13345;SDS011;6742;48.036;15.780;2022-11-20T10:00:34;239.63;;;226.87;;
13345;SDS011;6742;48.036;15.780;2022-11-20T10:03:05;260.97;;;246.33;;
13345;SDS011;6742;48.036;15.780;2022-11-20T15:10:46;146.10;;;138.83;;
13345;SDS011;6742;48.036;15.780;2022-11-20T15:13:15;141.93;;;134.83;;
13345;SDS011;6742;48.036;15.780;2022-11-20T15:15:47;149.67;;;142.50;;
13345;SDS011;6742;48.036;15.780;2022-11-20T15:18:15;117.37;;;111.73;;
13345;SDS011;6742;48.036;15.780;2022-11-20T15:20:44;126.10;;;120.17;;
13345;SDS011;6742;48.036;15.780;2022-11-20T15:23:15;140.77;;;134.00;;
13345;SDS011;6742;48.036;15.780;2022-11-20T15:25:44;154.37;;;145.43;;
13345;SDS011;6742;48.036;15.780;2022-11-20T15:28:15;134.83;;;128.20;;
13345;SDS011;6742;48.036;15.780;2022-11-20T15:30:44;114.57;;;109.23;;
13345;SDS011;6742;48.036;15.780;2022-11-20T15:33:12;111.93;;;106.73;;
13345;SDS011;6742;48.036;15.780;2022-11-20T15:35:39;146.70;;;139.60;;
13345;SDS011;6742;48.036;15.780;2022-11-20T15:38:06;147.77;;;140.67;;
13345;SDS011;6742;48.036;15.780;2022-11-20T15:40:33;179.73;;;171.00;;
13345;SDS011;6742;48.036;15.780;2022-11-20T15:43:00;205.80;;;195.73;;
13345;SDS011;6742;48.036;15.780;2022-11-20T15:45:35;167.13;;;159.10;;
13345;SDS011;6742;48.036;15.780;2022-11-20T15:48:05;157.37;;;149.80;;
13345;SDS011;6742;48.036;15.780;2022-11-20T15:50:39;173.23;;;164.63;;
13345;SDS011;6742;48.036;15.780;2022-11-20T15:53:12;132.20;;;125.77;;
13345;SDS011;6742;48.036;15.780;2022-11-20T15:55:39;177.33;;;168.73;;
13345;SDS011;6742;48.036;15.780;2022-11-20T15:58:06;215.10;;;204.27;;
13345;SDS011;6742;48.036;15.780;2022-11-20T16:00:34;251.10;;;236.17;;
13345;SDS011;6742;48.036;15.780;2022-11-20T16:03:01;254.93;;;241.27;;
13345;SDS011;6742;48.036;15.780;2022-11-20T16:05:28;218.83;;;205.50;;
13345;SDS011;6742;48.036;15.780;2022-11-20T16:07:56;223.23;;;210.87;;
13345;SDS011;6742;48.036;15.780;2022-11-20T16:10:23;219.53;;;207.93;;
13345;SDS011;6742;48.036;15.780;2022-11-20T16:12:50;243.90;;;231.00;;
13345;SDS011;6742;48.036;15.780;2022-11-20T16:15:36;278.53;;;263.83;;
13345;SDS011;6742;48.036;15.780;2022-11-20T16:18:12;233.10;;;220.83;;
13345;SDS011;6742;48.036;15.780;2022-11-20T16:20:41;200.63;;;189.77;;
13345;SDS011;6742;48.036;15.780;2022-11-20T16:23:08;276.17;;;260.50;;
13345;SDS011;6742;48.036;15.780;2022-11-20T16:25:36;313.67;;;295.67;;
13345;SDS011;6742;48.036;15.780;2022-11-20T16:28:03;348.77;;;328.63;;
13345;SDS011;6742;48.036;15.780;2022-11-20T16:30:30;295.07;;;279.00;;
13345;SDS011;6742;48.036;15.780;2022-11-20T16:32:59;230.73;;;219.27;;
13345;SDS011;6742;48.036;15.780;2022-11-20T16:35:26;266.93;;;252.93;;
13345;SDS011;6742;48.036;15.780;2022-11-20T16:37:54;278.57;;;264.03;;
13345;SDS011;6742;48.036;15.780;2022-11-20T16:40:21;297.77;;;281.43;;
13345;SDS011;6742;48.036;15.780;2022-11-20T16:42:48;304.27;;;288.27;;
13345;SDS011;6742;48.036;15.780;2022-11-20T16:45:15;355.20;;;334.37;;
13345;SDS011;6742;48.036;15.780;2022-11-20T16:47:46;341.37;;;321.90;;
13345;SDS011;6742;48.036;15.780;2022-11-20T16:50:14;336.13;;;317.27;;
13345;SDS011;6742;48.036;15.780;2022-11-20T16:52:41;258.40;;;245.47;;
13345;SDS011;6742;48.036;15.780;2022-11-20T16:55:08;286.13;;;271.23;;
13345;SDS011;6742;48.036;15.780;2022-11-20T16:57:35;327.20;;;308.77;;
13345;SDS011;6742;48.036;15.780;2022-11-20T17:00:03;320.33;;;302.43;;
13345;SDS011;6742;48.036;15.780;2022-11-20T17:02:30;372.30;;;350.53;;
13345;SDS011;6742;48.036;15.780;2022-11-20T17:04:57;248.47;;;235.70;;
13345;SDS011;6742;48.036;15.780;2022-11-20T17:07:25;249.70;;;236.47;;
13345;SDS011;6742;48.036;15.780;2022-11-20T17:09:52;304.27;;;287.83;;
13345;SDS011;6742;48.036;15.780;2022-11-20T17:12:19;306.27;;;289.00;;
13345;SDS011;6742;48.036;15.780;2022-11-20T17:14:49;371.27;;;349.13;;
13345;SDS011;6742;48.036;15.780;2022-11-20T17:17:16;293.77;;;278.77;;
13345;SDS011;6742;48.036;15.780;2022-11-20T17:19:42;249.07;;;236.33;;
13345;SDS011;6742;48.036;15.780;2022-11-20T17:22:10;231.37;;;219.70;;
13345;SDS011;6742;48.036;15.780;2022-11-20T17:24:38;319.67;;;301.37;;
13345;SDS011;6742;48.036;15.780;2022-11-20T17:27:05;358.53;;;338.13;;
13345;SDS011;6742;48.036;15.780;2022-11-20T17:29:31;379.30;;;356.50;;
13345;SDS011;6742;48.036;15.780;2022-11-20T17:31:58;299.60;;;283.40;;
13345;SDS011;6742;48.036;15.780;2022-11-20T17:34:25;271.80;;;258.03;;
13345;SDS011;6742;48.036;15.780;2022-11-20T17:36:52;238.23;;;226.43;;
13345;SDS011;6742;48.036;15.780;2022-11-20T17:39:19;330.43;;;310.17;;
13345;SDS011;6742;48.036;15.780;2022-11-20T17:41:47;370.97;;;348.77;;
13345;SDS011;6742;48.036;15.780;2022-11-20T17:44:34;337.10;;;318.13;;
13345;SDS011;6742;48.036;15.780;2022-11-20T17:47:01;382.57;;;358.63;;
13345;SDS011;6742;48.036;15.780;2022-11-20T17:49:29;374.33;;;351.40;;
13345;SDS011;6742;48.036;15.780;2022-11-20T17:51:58;407.30;;;381.97;;
13345;SDS011;6742;48.036;15.780;2022-11-20T17:54:25;354.07;;;334.17;;
13345;SDS011;6742;48.036;15.780;2022-11-20T17:56:53;281.23;;;266.17;;
13345;SDS011;6742;48.036;15.780;2022-11-20T17:59:37;249.83;;;236.07;;
13345;SDS011;6742;48.036;15.780;2022-11-20T18:02:04;261.70;;;248.33;;
13345;SDS011;6742;48.036;15.780;2022-11-20T18:04:32;233.93;;;221.37;;
13345;SDS011;6742;48.036;15.780;2022-11-20T18:06:59;257.87;;;242.47;;
13345;SDS011;6742;48.036;15.780;2022-11-20T18:09:25;357.37;;;336.03;;
13345;SDS011;6742;48.036;15.780;2022-11-20T18:11:54;272.87;;;258.03;;
13345;SDS011;6742;48.036;15.780;2022-11-20T18:14:21;334.63;;;315.00;;
13345;SDS011;6742;48.036;15.780;2022-11-20T18:16:57;416.27;;;390.10;;
13345;SDS011;6742;48.036;15.780;2022-11-20T18:19:25;452.37;;;422.67;;
13345;SDS011;6742;48.036;15.780;2022-11-20T18:21:53;429.30;;;401.87;;
13345;SDS011;6742;48.036;15.780;2022-11-20T18:24:21;320.07;;;301.67;;
13345;SDS011;6742;48.036;15.780;2022-11-20T18:26:48;341.27;;;321.00;;
13345;SDS011;6742;48.036;15.780;2022-11-20T18:29:16;365.07;;;342.80;;
13345;SDS011;6742;48.036;15.780;2022-11-20T18:31:43;374.97;;;351.37;;
13345;SDS011;6742;48.036;15.780;2022-11-20T18:34:10;276.73;;;260.93;;
13345;SDS011;6742;48.036;15.780;2022-11-20T18:36:38;421.13;;;392.97;;
13345;SDS011;6742;48.036;15.780;2022-11-20T18:39:06;325.57;;;307.13;;
13345;SDS011;6742;48.036;15.780;2022-11-20T18:41:34;298.40;;;281.77;;
13345;SDS011;6742;48.036;15.780;2022-11-20T18:44:20;276.93;;;261.63;;
13345;SDS011;6742;48.036;15.780;2022-11-20T18:47:07;323.43;;;304.80;;
13345;SDS011;6742;48.036;15.780;2022-11-20T18:49:34;387.97;;;364.63;;
13345;SDS011;6742;48.036;15.780;2022-11-20T18:52:02;368.70;;;346.20;;
13345;SDS011;6742;48.036;15.780;2022-11-20T18:54:29;269.47;;;254.83;;
13345;SDS011;6742;48.036;15.780;2022-11-20T18:56:56;254.10;;;241.17;;
13345;SDS011;6742;48.036;15.780;2022-11-20T18:59:24;220.33;;;209.43;;
13345;SDS011;6742;48.036;15.780;2022-11-20T19:01:51;255.10;;;239.97;;
13345;SDS011;6742;48.036;15.780;2022-11-20T19:04:18;275.43;;;259.27;;
13345;SDS011;6742;48.036;15.780;2022-11-20T19:06:45;256.87;;;241.93;;
13345;SDS011;6742;48.036;15.780;2022-11-20T19:09:14;223.10;;;211.53;;
13345;SDS011;6742;48.036;15.780;2022-11-20T19:11:42;268.93;;;254.33;;
13345;SDS011;6742;48.036;15.780;2022-11-20T19:14:09;214.43;;;203.83;;
13345;SDS011;6742;48.036;15.780;2022-11-20T19:16:37;193.83;;;184.63;;
13345;SDS011;6742;48.036;15.780;2022-11-20T19:19:05;208.63;;;197.97;;
13345;SDS011;6742;48.036;15.780;2022-11-20T19:21:32;262.13;;;248.17;;